sensor_id;sensor_type;location;lat;lon;timestamp;pressure;altitude;pressure_sealevel;temperature;humidity
3590;BME280;1809;48.470;9.226;2024-01-11T00:00:30;70204.34;;;-5.61;100.00
3590;BME280;1809;48.470;9.226;2024-01-11T00:02:56;70535.78;;;-5.61;100.00
3590;BME280;1809;48.470;9.226;2024-01-11T00:05:21;70531.09;;;-5.65;100.00
3590;BME280;1809;48.470;9.226;2024-01-11T00:07:47;70532.84;;;-5.63;100.00
3590;BME280;1809;48.470;9.226;2024-01-11T00:10:13;70198.00;;;-5.67;100.00
3590;BME280;1809;48.470;9.226;2024-01-11T00:12:38;70196.25;;;-5.68;100.00
3590;BME280;1809;48.470;9.226;2024-01-11T00:15:04;70195.09;;;-5.69;100.00
3590;BME280;1809;48.470;9.226;2024-01-11T00:17:29;70192.19;;;-5.72;100.00
3590;BME280;1809;48.470;9.226;2024-01-11T00:19:54;69860.88;;;-5.72;100.00
3590;BME280;1809;48.470;9.226;2024-01-11T00:22:20;70193.34;;;-5.71;100.00
3590;BME280;1809;48.470;9.226;2024-01-11T00:24:45;69856.28;;;-5.76;100.00
3590;BME280;1809;48.470;9.226;2024-01-11T00:27:10;69519.84;;;-5.81;100.00
3590;BME280;1809;48.470;9.226;2024-01-11T00:29:36;70187.00;;;-5.76;100.00
3590;BME280;1809;48.470;9.226;2024-01-11T00:32:01;69847.63;;;-5.84;100.00
3590;BME280;1809;48.470;9.226;2024-01-11T00:34:26;70179.47;;;-5.83;100.00
3590;BME280;1809;48.470;9.226;2024-01-11T00:36:52;69506.69;;;-5.93;100.00
3590;BME280;1809;48.470;9.226;2024-01-11T00:39:17;69841.91;;;-5.89;100.00
3590;BME280;1809;48.470;9.226;2024-01-11T00:41:42;69506.69;;;-5.93;100.00
3590;BME280;1809;48.470;9.226;2024-01-11T00:44:08;69503.25;;;-5.96;100.00
3590;BME280;1809;48.470;9.226;2024-01-11T00:46:34;70170.22;;;-5.91;100.00
3590;BME280;1809;48.470;9.226;2024-01-11T00:48:59;69837.88;;;-5.92;100.00
3590;BME280;1809;48.470;9.226;2024-01-11T00:51:24;70509.00;;;-5.84;100.00
3590;BME280;1809;48.470;9.226;2024-01-11T00:53:50;70509.00;;;-5.84;100.00
3590;BME280;1809;48.470;9.226;2024-01-11T00:56:19;70507.84;;;-5.85;100.00
3590;BME280;1809;48.470;9.226;2024-01-11T00:58:45;70506.13;;;-5.86;100.00
3590;BME280;1809;48.470;9.226;2024-01-11T01:01:11;70170.22;;;-5.91;100.00
3590;BME280;1809;48.470;9.226;2024-01-11T01:03:37;70510.16;;;-5.83;100.00
3590;BME280;1809;48.470;9.226;2024-01-11T01:06:03;70170.22;;;-5.91;100.00
3590;BME280;1809;48.470;9.226;2024-01-11T01:08:28;70507.28;;;-5.85;100.00
3590;BME280;1809;48.470;9.226;2024-01-11T01:10:54;70500.88;;;-5.91;100.00
3590;BME280;1809;48.470;9.226;2024-01-11T01:13:20;70163.25;;;-5.97;100.00
3590;BME280;1809;48.470;9.226;2024-01-11T01:15:46;69836.69;;;-5.93;100.00
3590;BME280;1809;48.470;9.226;2024-01-11T01:18:11;69511.28;;;-5.89;100.00
3590;BME280;1809;48.470;9.226;2024-01-11T01:20:36;69177.84;;;-5.91;100.00
3590;BME280;1809;48.470;9.226;2024-01-11T01:23:02;68838.81;;;-5.99;100.00
3590;BME280;1809;48.470;9.226;2024-01-11T01:25:28;68501.56;;;-6.05;100.00
3590;BME280;1809;48.470;9.226;2024-01-11T01:27:53;68500.44;;;-6.06;100.00
3590;BME280;1809;48.470;9.226;2024-01-11T01:30:19;68502.69;;;-6.04;100.00
3590;BME280;1809;48.470;9.226;2024-01-11T01:32:45;68502.69;;;-6.04;100.00
3590;BME280;1809;48.470;9.226;2024-01-11T01:35:10;68165.00;;;-6.11;100.00
3590;BME280;1809;48.470;9.226;2024-01-11T01:37:35;68499.84;;;-6.07;100.00
3590;BME280;1809;48.470;9.226;2024-01-11T01:40:01;68164.44;;;-6.11;100.00
3590;BME280;1809;48.470;9.226;2024-01-11T01:42:26;68494.78;;;-6.11;100.00
3590;BME280;1809;48.470;9.226;2024-01-11T01:44:52;69835.00;;;-5.95;100.00
3590;BME280;1809;48.470;9.226;2024-01-11T01:47:17;71172.84;;;-5.82;100.00
3590;BME280;1809;48.470;9.226;2024-01-11T01:49:44;70504.38;;;-5.88;100.00
3590;BME280;1809;48.470;9.226;2024-01-11T01:52:10;70177.13;;;-5.85;100.00
3590;BME280;1809;48.470;9.226;2024-01-11T01:54:36;69508.41;;;-5.91;100.00
3590;BME280;1809;48.470;9.226;2024-01-11T01:57:02;70179.47;;;-5.83;100.00
3590;BME280;1809;48.470;9.226;2024-01-11T01:59:29;69844.19;;;-5.87;100.00
3590;BME280;1809;48.470;9.226;2024-01-11T02:01:56;69842.47;;;-5.88;100.00
3590;BME280;1809;48.470;9.226;2024-01-11T02:04:21;70175.44;;;-5.86;100.00
3590;BME280;1809;48.470;9.226;2024-01-11T02:06:48;68842.19;;;-5.96;100.00
3590;BME280;1809;48.470;9.226;2024-01-11T02:09:14;67844.16;;;-6.02;100.00
3590;BME280;1809;48.470;9.226;2024-01-11T02:11:41;67511.59;;;-6.04;100.00
3590;BME280;1809;48.470;9.226;2024-01-11T02:14:07;67514.94;;;-6.01;100.00
3590;BME280;1809;48.470;9.226;2024-01-11T02:16:33;67850.88;;;-5.96;100.00
3590;BME280;1809;48.470;9.226;2024-01-11T02:18:58;67852.00;;;-5.95;100.00
3590;BME280;1809;48.470;9.226;2024-01-11T02:21:24;68191.41;;;-5.87;100.00
3590;BME280;1809;48.470;9.226;2024-01-11T02:24:04;67857.00;;;-5.90;100.00
3590;BME280;1809;48.470;9.226;2024-01-11T02:26:30;67850.88;;;-5.96;100.00
3590;BME280;1809;48.470;9.226;2024-01-11T02:28:55;67514.38;;;-6.02;100.00
3590;BME280;1809;48.470;9.226;2024-01-11T02:31:20;65854.97;;;-6.09;100.00
3590;BME280;1809;48.470;9.226;2024-01-11T02:33:47;65193.69;;;-6.10;100.00
3590;BME280;1809;48.470;9.226;2024-01-11T02:36:13;65194.22;;;-6.10;100.00
3590;BME280;1809;48.470;9.226;2024-01-11T02:38:39;64525.13;;;-6.18;100.00
3590;BME280;1809;48.470;9.226;2024-01-11T02:41:07;64188.84;;;-6.24;100.00
3590;BME280;1809;48.470;9.226;2024-01-11T02:43:33;64190.94;;;-6.22;100.00
3590;BME280;1809;48.470;9.226;2024-01-11T02:46:01;63856.88;;;-6.26;100.00
3590;BME280;1809;48.470;9.226;2024-01-11T02:48:29;63854.75;;;-6.28;100.00
3590;BME280;1809;48.470;9.226;2024-01-11T02:50:56;64190.44;;;-6.23;100.00
3590;BME280;1809;48.470;9.226;2024-01-11T02:53:22;64521.94;;;-6.21;100.00
3590;BME280;1809;48.470;9.226;2024-01-11T02:55:48;64858.28;;;-6.15;100.00
3590;BME280;1809;48.470;9.226;2024-01-11T02:58:13;65192.06;;;-6.12;100.00
3590;BME280;1809;48.470;9.226;2024-01-11T03:00:39;65192.63;;;-6.11;100.00
3590;BME280;1809;48.470;9.226;2024-01-11T03:03:04;65189.41;;;-6.14;100.00
3590;BME280;1809;48.470;9.226;2024-01-11T03:05:30;64523.00;;;-6.20;100.00
3590;BME280;1809;48.470;9.226;2024-01-11T03:07:55;63854.22;;;-6.29;100.00
3590;BME280;1809;48.470;9.226;2024-01-11T03:10:20;63856.88;;;-6.26;100.00
3590;BME280;1809;48.470;9.226;2024-01-11T03:12:46;63523.91;;;-6.29;100.00
3590;BME280;1809;48.470;9.226;2024-01-11T03:15:14;63524.94;;;-6.28;100.00
3590;BME280;1809;48.470;9.226;2024-01-11T03:17:39;62522.31;;;-6.41;100.00
3590;BME280;1809;48.470;9.226;2024-01-11T03:20:05;63189.97;;;-6.33;100.00
3590;BME280;1809;48.470;9.226;2024-01-11T03:22:30;63189.97;;;-6.33;100.00
3590;BME280;1809;48.470;9.226;2024-01-11T03:24:56;63522.84;;;-6.30;100.00
3590;BME280;1809;48.470;9.226;2024-01-11T03:27:22;62853.00;;;-6.40;100.00
3590;BME280;1809;48.470;9.226;2024-01-11T03:29:47;62516.66;;;-6.47;100.00
3590;BME280;1809;48.470;9.226;2024-01-11T03:32:14;62847.81;;;-6.45;100.00
3590;BME280;1809;48.470;9.226;2024-01-11T03:34:39;62513.56;;;-6.50;100.00
3590;BME280;1809;48.470;9.226;2024-01-11T03:37:05;63179.56;;;-6.43;100.00
3590;BME280;1809;48.470;9.226;2024-01-11T03:39:30;63512.41;;;-6.40;100.00
3590;BME280;1809;48.470;9.226;2024-01-11T03:41:55;63175.91;;;-6.47;100.00
3590;BME280;1809;48.470;9.226;2024-01-11T03:44:22;62842.63;;;-6.50;100.00
3590;BME280;1809;48.470;9.226;2024-01-11T03:46:47;63174.38;;;-6.48;100.00
3590;BME280;1809;48.470;9.226;2024-01-11T03:49:13;62504.81;;;-6.59;100.00
3590;BME280;1809;48.470;9.226;2024-01-11T03:51:38;63168.66;;;-6.54;100.00
3590;BME280;1809;48.470;9.226;2024-01-11T03:54:03;63500.91;;;-6.51;100.00
3590;BME280;1809;48.470;9.226;2024-01-11T03:56:29;63501.94;;;-6.50;100.00
3590;BME280;1809;48.470;9.226;2024-01-11T03:58:54;63497.25;;;-6.55;100.00
3590;BME280;1809;48.470;9.226;2024-01-11T04:01:19;63495.66;;;-6.57;100.00
3590;BME280;1809;48.470;9.226;2024-01-11T04:03:45;62827.13;;;-6.66;100.00
3590;BME280;1809;48.470;9.226;2024-01-11T04:06:21;63496.72;;;-6.56;100.00
3590;BME280;1809;48.470;9.226;2024-01-11T04:08:48;62828.69;;;-6.64;100.00
3590;BME280;1809;48.470;9.226;2024-01-11T04:11:13;63160.84;;;-6.62;100.00
3590;BME280;1809;48.470;9.226;2024-01-11T04:13:39;63157.22;;;-6.65;100.00
3590;BME280;1809;48.470;9.226;2024-01-11T04:16:07;63490.44;;;-6.62;100.00
3590;BME280;1809;48.470;9.226;2024-01-11T04:18:33;63157.72;;;-6.65;100.00
3590;BME280;1809;48.470;9.226;2024-01-11T04:20:58;63489.91;;;-6.62;100.00
3590;BME280;1809;48.470;9.226;2024-01-11T04:23:24;64489.00;;;-6.53;100.00
3590;BME280;1809;48.470;9.226;2024-01-11T04:25:49;64820.91;;;-6.50;100.00
3590;BME280;1809;48.470;9.226;2024-01-11T04:28:17;64152.91;;;-6.59;100.00
3590;BME280;1809;48.470;9.226;2024-01-11T04:30:42;64485.28;;;-6.56;100.00
3590;BME280;1809;48.470;9.226;2024-01-11T04:33:08;64486.88;;;-6.55;100.00
3590;BME280;1809;48.470;9.226;2024-01-11T04:35:34;64484.25;;;-6.57;100.00
3590;BME280;1809;48.470;9.226;2024-01-11T04:37:59;63818.00;;;-6.64;100.00
3590;BME280;1809;48.470;9.226;2024-01-11T04:40:24;63483.13;;;-6.69;100.00
3590;BME280;1809;48.470;9.226;2024-01-11T04:42:50;63148.38;;;-6.74;100.00
3590;BME280;1809;48.470;9.226;2024-01-11T04:45:15;62481.19;;;-6.82;100.00
3590;BME280;1809;48.470;9.226;2024-01-11T04:47:40;62816.81;;;-6.76;100.00
3590;BME280;1809;48.470;9.226;2024-01-11T04:50:06;62821.97;;;-6.71;100.00
3590;BME280;1809;48.470;9.226;2024-01-11T04:52:32;62488.88;;;-6.74;100.00
3590;BME280;1809;48.470;9.226;2024-01-11T04:54:58;62487.34;;;-6.76;100.00
3590;BME280;1809;48.470;9.226;2024-01-11T04:57:23;62486.31;;;-6.77;100.00
3590;BME280;1809;48.470;9.226;2024-01-11T04:59:48;62813.72;;;-6.79;100.00
3590;BME280;1809;48.470;9.226;2024-01-11T05:02:14;61826.47;;;-6.78;100.00
3590;BME280;1809;48.470;9.226;2024-01-11T05:04:39;61164.78;;;-6.81;100.00
3590;BME280;1809;48.470;9.226;2024-01-11T05:07:05;60170.13;;;-6.88;100.00
3590;BME280;1809;48.470;9.226;2024-01-11T05:09:30;60170.13;;;-6.88;100.00
3590;BME280;1809;48.470;9.226;2024-01-11T05:11:55;59506.00;;;-6.94;100.00
3590;BME280;1809;48.470;9.226;2024-01-11T05:14:20;59839.03;;;-6.90;100.00
3590;BME280;1809;48.470;9.226;2024-01-11T05:16:46;59840.00;;;-6.89;100.00
3590;BME280;1809;48.470;9.226;2024-01-11T05:19:11;59844.91;;;-6.84;100.00
3590;BME280;1809;48.470;9.226;2024-01-11T05:21:37;59509.91;;;-6.90;100.00
3590;BME280;1809;48.470;9.226;2024-01-11T05:24:02;59508.47;;;-6.91;100.00
3590;BME280;1809;48.470;9.226;2024-01-11T05:26:27;59844.91;;;-6.84;100.00
3590;BME280;1809;48.470;9.226;2024-01-11T05:28:53;59511.88;;;-6.88;100.00
3590;BME280;1809;48.470;9.226;2024-01-11T05:31:18;59180.84;;;-6.90;100.00
3590;BME280;1809;48.470;9.226;2024-01-11T05:33:44;59514.81;;;-6.85;100.00
3590;BME280;1809;48.470;9.226;2024-01-11T05:36:10;59183.28;;;-6.87;100.00
3590;BME280;1809;48.470;9.226;2024-01-11T05:38:35;58853.75;;;-6.88;100.00
3590;BME280;1809;48.470;9.226;2024-01-11T05:41:01;58519.94;;;-6.93;100.00
3590;BME280;1809;48.470;9.226;2024-01-11T05:43:27;58522.81;;;-6.90;100.00
3590;BME280;1809;48.470;9.226;2024-01-11T05:45:52;59521.66;;;-6.78;100.00
3590;BME280;1809;48.470;9.226;2024-01-11T05:48:17;59190.59;;;-6.80;100.00
3590;BME280;1809;48.470;9.226;2024-01-11T05:50:44;58525.72;;;-6.87;100.00
3590;BME280;1809;48.470;9.226;2024-01-11T05:53:10;58196.72;;;-6.87;100.00
3590;BME280;1809;48.470;9.226;2024-01-11T05:55:36;57863.03;;;-6.92;100.00
3590;BME280;1809;48.470;9.226;2024-01-11T05:58:02;58197.19;;;-6.86;100.00
3590;BME280;1809;48.470;9.226;2024-01-11T06:00:27;59530.47;;;-6.69;100.00
3590;BME280;1809;48.470;9.226;2024-01-11T06:02:52;59196.41;;;-6.74;100.00
3590;BME280;1809;48.470;9.226;2024-01-11T06:05:18;58531.97;;;-6.80;100.00
3590;BME280;1809;48.470;9.226;2024-01-11T06:07:43;58535.31;;;-6.77;100.00
3590;BME280;1809;48.470;9.226;2024-01-11T06:10:09;58869.22;;;-6.72;100.00
3590;BME280;1809;48.470;9.226;2024-01-11T06:12:35;58536.28;;;-6.76;100.00
3590;BME280;1809;48.470;9.226;2024-01-11T06:15:01;58867.31;;;-6.74;100.00
3590;BME280;1809;48.470;9.226;2024-01-11T06:17:26;57540.72;;;-6.85;100.00
3590;BME280;1809;48.470;9.226;2024-01-11T06:19:52;55887.38;;;-6.95;100.00
3590;BME280;1809;48.470;9.226;2024-01-11T06:22:17;54565.22;;;-7.03;100.00
3590;BME280;1809;48.470;9.226;2024-01-11T06:24:43;53575.38;;;-7.09;100.00
3590;BME280;1809;48.470;9.226;2024-01-11T06:27:08;52583.84;;;-7.16;100.00
3590;BME280;1809;48.470;9.226;2024-01-11T06:29:34;53579.34;;;-7.04;100.00
3590;BME280;1809;48.470;9.226;2024-01-11T06:31:59;54242.03;;;-6.97;100.00
3590;BME280;1809;48.470;9.226;2024-01-11T06:34:25;54572.81;;;-6.95;100.00
3590;BME280;1809;48.470;9.226;2024-01-11T06:36:50;54905.91;;;-6.90;100.00
3590;BME280;1809;48.470;9.226;2024-01-11T06:39:15;54243.38;;;-6.96;100.00
3590;BME280;1809;48.470;9.226;2024-01-11T06:41:41;54243.38;;;-6.96;100.00
3590;BME280;1809;48.470;9.226;2024-01-11T06:44:06;54571.47;;;-6.96;100.00
3590;BME280;1809;48.470;9.226;2024-01-11T06:46:31;54242.03;;;-6.97;100.00
3590;BME280;1809;48.470;9.226;2024-01-11T06:48:56;53575.81;;;-7.08;100.00
3590;BME280;1809;48.470;9.226;2024-01-11T06:51:22;53580.22;;;-7.03;100.00
3590;BME280;1809;48.470;9.226;2024-01-11T06:53:48;54904.56;;;-6.91;100.00
3590;BME280;1809;48.470;9.226;2024-01-11T06:56:17;55567.78;;;-6.85;100.00
3590;BME280;1809;48.470;9.226;2024-01-11T06:58:44;55238.19;;;-6.86;100.00
3590;BME280;1809;48.470;9.226;2024-01-11T07:01:10;55236.38;;;-6.88;100.00
3590;BME280;1809;48.470;9.226;2024-01-11T07:03:36;54906.81;;;-6.89;100.00
3590;BME280;1809;48.470;9.226;2024-01-11T07:06:01;54577.75;;;-6.89;100.00
3590;BME280;1809;48.470;9.226;2024-01-11T07:08:28;54246.94;;;-6.92;100.00
3590;BME280;1809;48.470;9.226;2024-01-11T07:10:53;54577.75;;;-6.89;100.00
3590;BME280;1809;48.470;9.226;2024-01-11T07:13:18;54579.97;;;-6.87;100.00
3590;BME280;1809;48.470;9.226;2024-01-11T07:15:44;55575.56;;;-6.76;100.00
3590;BME280;1809;48.470;9.226;2024-01-11T07:18:10;55576.00;;;-6.76;100.00
3590;BME280;1809;48.470;9.226;2024-01-11T07:20:35;55577.38;;;-6.74;100.00
3590;BME280;1809;48.470;9.226;2024-01-11T07:23:00;54918.06;;;-6.76;100.00
3590;BME280;1809;48.470;9.226;2024-01-11T07:25:26;53599.53;;;-6.81;100.00
3590;BME280;1809;48.470;9.226;2024-01-11T07:27:51;52939.44;;;-6.84;100.00
3590;BME280;1809;48.470;9.226;2024-01-11T07:30:17;51949.06;;;-6.90;100.00
3590;BME280;1809;48.470;9.226;2024-01-11T07:32:46;51289.50;;;-6.94;100.00
3590;BME280;1809;48.470;9.226;2024-01-11T07:35:11;51623.28;;;-6.87;100.00
3590;BME280;1809;48.470;9.226;2024-01-11T07:37:37;51295.38;;;-6.87;100.00
3590;BME280;1809;48.470;9.226;2024-01-11T07:40:04;50965.44;;;-6.89;100.00
3590;BME280;1809;48.470;9.226;2024-01-11T07:42:29;51629.63;;;-6.80;100.00
3590;BME280;1809;48.470;9.226;2024-01-11T07:44:54;51302.09;;;-6.79;100.00
3590;BME280;1809;48.470;9.226;2024-01-11T07:47:20;51633.00;;;-6.76;100.00
3590;BME280;1809;48.470;9.226;2024-01-11T07:49:45;53291.06;;;-6.58;100.00
3590;BME280;1809;48.470;9.226;2024-01-11T07:52:11;53620.19;;;-6.57;100.00
3590;BME280;1809;48.470;9.226;2024-01-11T07:54:36;53292.81;;;-6.56;100.00
3590;BME280;1809;48.470;9.226;2024-01-11T07:57:01;53954.63;;;-6.50;100.00
3590;BME280;1809;48.470;9.226;2024-01-11T07:59:32;54953.66;;;-6.36;100.00
3590;BME280;1809;48.470;9.226;2024-01-11T08:01:57;54954.56;;;-6.35;100.00
3590;BME280;1809;48.470;9.226;2024-01-11T08:04:23;55619.78;;;-6.27;100.00
3590;BME280;1809;48.470;9.226;2024-01-11T08:06:48;55628.91;;;-6.17;100.00
3590;BME280;1809;48.470;9.226;2024-01-11T08:09:13;56297.31;;;-6.06;100.00
3590;BME280;1809;48.470;9.226;2024-01-11T08:11:39;55971.78;;;-6.02;100.00
3590;BME280;1809;48.470;9.226;2024-01-11T08:14:06;54988.78;;;-5.97;100.00
3590;BME280;1809;48.470;9.226;2024-01-11T08:16:31;53675.09;;;-5.94;100.00
3590;BME280;1809;48.470;9.226;2024-01-11T08:18:56;52364.38;;;-5.88;100.00
3590;BME280;1809;48.470;9.226;2024-01-11T08:21:22;51381.47;;;-5.83;100.00
3590;BME280;1809;48.470;9.226;2024-01-11T08:23:47;51064.72;;;-5.69;100.00
3590;BME280;1809;48.470;9.226;2024-01-11T08:26:19;50083.03;;;-5.63;100.00
3590;BME280;1809;48.470;9.226;2024-01-11T08:28:45;50096.13;;;-5.47;100.00
3590;BME280;1809;48.470;9.226;2024-01-11T08:31:10;48457.38;;;-5.39;100.00
3590;BME280;1809;48.470;9.226;2024-01-11T08:33:36;46161.69;;;-5.32;100.00
3590;BME280;1809;48.470;9.226;2024-01-11T08:36:03;41893.84;;;-5.30;100.00
3590;BME280;1809;48.470;9.226;2024-01-11T08:38:29;39284.59;;;-5.05;100.00
3590;BME280;1809;48.470;9.226;2024-01-11T08:40:55;33385.44;;;-5.02;100.00
3590;BME280;1809;48.470;9.226;2024-01-11T08:43:20;28155.50;;;-4.87;100.00
3590;BME280;1809;48.470;9.226;2024-01-11T08:45:45;22606.81;;;-4.65;100.00
3590;BME280;1809;48.470;9.226;2024-01-11T08:48:12;14451.06;;;-4.59;100.00
3590;BME280;1809;48.470;9.226;2024-01-11T08:50:37;3387.88;;;-4.68;100.00
3590;BME280;1809;48.470;9.226;2024-01-11T08:53:03;-6401.13;;;-4.74;100.00
3590;BME280;1809;48.470;9.226;2024-01-11T08:55:28;-11876.78;;;-4.68;100.00
3590;BME280;1809;48.470;9.226;2024-01-11T08:57:53;-15347.56;;;-4.68;100.00
3590;BME280;1809;48.470;9.226;2024-01-11T09:00:19;-16041.06;;;-4.57;100.00
3590;BME280;1809;48.470;9.226;2024-01-11T09:02:44;-16044.31;;;-4.46;100.00
3590;BME280;1809;48.470;9.226;2024-01-11T09:05:11;-16047.16;;;-4.36;100.00
3590;BME280;1809;48.470;9.226;2024-01-11T09:07:36;-16049.81;;;-4.26;100.00
3590;BME280;1809;48.470;9.226;2024-01-11T09:10:02;-16051.81;;;-4.19;100.00
3590;BME280;1809;48.470;9.226;2024-01-11T09:12:28;-16059.56;;;-3.91;100.00
3590;BME280;1809;48.470;9.226;2024-01-11T09:14:53;-16060.13;;;-3.89;100.00
3590;BME280;1809;48.470;9.226;2024-01-11T09:17:18;-16060.56;;;-3.88;100.00
3590;BME280;1809;48.470;9.226;2024-01-11T09:19:44;-16055.91;;;-4.04;100.00
3590;BME280;1809;48.470;9.226;2024-01-11T09:22:09;-16059.56;;;-3.91;100.00
3590;BME280;1809;48.470;9.226;2024-01-11T09:24:35;-16061.81;;;-3.83;100.00
3590;BME280;1809;48.470;9.226;2024-01-11T09:27:01;-16069.16;;;-3.57;100.00
3590;BME280;1809;48.470;9.226;2024-01-11T09:29:26;-16075.09;;;-3.36;100.00
3590;BME280;1809;48.470;9.226;2024-01-11T09:31:52;-16085.53;;;-2.98;100.00
3590;BME280;1809;48.470;9.226;2024-01-11T09:34:18;-16089.47;;;-2.84;100.00
3590;BME280;1809;48.470;9.226;2024-01-11T09:36:43;-16089.47;;;-2.84;100.00
3590;BME280;1809;48.470;9.226;2024-01-11T09:39:10;-16101.59;;;-2.41;100.00
3590;BME280;1809;48.470;9.226;2024-01-11T09:41:42;-16093.00;;;-2.72;100.00
3590;BME280;1809;48.470;9.226;2024-01-11T09:44:09;-16089.75;;;-2.83;100.00
3590;BME280;1809;48.470;9.226;2024-01-11T09:46:34;-16094.00;;;-2.68;100.00
3590;BME280;1809;48.470;9.226;2024-01-11T09:49:01;-16099.06;;;-2.50;100.00
3590;BME280;1809;48.470;9.226;2024-01-11T09:51:29;-16101.03;;;-2.43;100.00
3590;BME280;1809;48.470;9.226;2024-01-11T09:53:54;-16098.91;;;-2.50;100.00
3590;BME280;1809;48.470;9.226;2024-01-11T09:56:21;-16097.94;;;-2.54;100.00
3590;BME280;1809;48.470;9.226;2024-01-11T09:58:49;-16101.75;;;-2.40;100.00
3590;BME280;1809;48.470;9.226;2024-01-11T10:01:15;-16103.28;;;-2.35;100.00
3590;BME280;1809;48.470;9.226;2024-01-11T10:03:41;-16103.28;;;-2.35;100.00
3590;BME280;1809;48.470;9.226;2024-01-11T10:06:09;-16095.13;;;-2.64;100.00
3590;BME280;1809;48.470;9.226;2024-01-11T10:08:35;-16100.47;;;-2.45;100.00
3590;BME280;1809;48.470;9.226;2024-01-11T10:11:02;-16105.97;;;-2.25;100.00
3590;BME280;1809;48.470;9.226;2024-01-11T10:13:29;-16101.88;;;-2.40;100.00
3590;BME280;1809;48.470;9.226;2024-01-11T10:16:08;-16097.09;;;-2.57;100.00
3590;BME280;1809;48.470;9.226;2024-01-11T10:18:35;-16100.19;;;-2.46;100.00
3590;BME280;1809;48.470;9.226;2024-01-11T10:21:01;-16097.66;;;-2.55;100.00
3590;BME280;1809;48.470;9.226;2024-01-11T10:23:26;-16093.41;;;-2.70;100.00
3590;BME280;1809;48.470;9.226;2024-01-11T10:25:55;-16084.13;;;-3.03;100.00
3590;BME280;1809;48.470;9.226;2024-01-11T10:28:21;-16089.47;;;-2.84;100.00
3590;BME280;1809;48.470;9.226;2024-01-11T10:30:46;-16086.94;;;-2.93;100.00
3590;BME280;1809;48.470;9.226;2024-01-11T10:33:12;-16087.78;;;-2.90;100.00
3590;BME280;1809;48.470;9.226;2024-01-11T10:35:37;-16100.34;;;-2.45;100.00
3590;BME280;1809;48.470;9.226;2024-01-11T10:38:09;-16103.56;;;-2.34;100.00
3590;BME280;1809;48.470;9.226;2024-01-11T10:40:35;-16104.28;;;-2.31;100.00
3590;BME280;1809;48.470;9.226;2024-01-11T10:43:01;-16103.84;;;-2.33;100.00
3590;BME280;1809;48.470;9.226;2024-01-11T10:45:28;-16105.56;;;-2.27;100.00
3590;BME280;1809;48.470;9.226;2024-01-11T10:47:55;-16112.03;;;-2.03;100.00
3590;BME280;1809;48.470;9.226;2024-01-11T10:50:25;-16115.72;;;-1.90;100.00
3590;BME280;1809;48.470;9.226;2024-01-11T10:55:33;-16114.88;;;-1.93;100.00
3590;BME280;1809;48.470;9.226;2024-01-11T10:58:00;-16116.13;;;-1.89;100.00
3590;BME280;1809;48.470;9.226;2024-01-11T11:00:30;-16116.28;;;-1.88;100.00
3590;BME280;1809;48.470;9.226;2024-01-11T11:02:58;-16118.09;;;-1.82;100.00
3590;BME280;1809;48.470;9.226;2024-01-11T11:05:25;-16125.28;;;-1.56;100.00
3590;BME280;1809;48.470;9.226;2024-01-11T11:07:50;-16123.31;;;-1.63;100.00
3590;BME280;1809;48.470;9.226;2024-01-11T11:10:18;-16122.75;;;-1.65;100.00
3590;BME280;1809;48.470;9.226;2024-01-11T11:12:45;-16122.47;;;-1.66;100.00
3590;BME280;1809;48.470;9.226;2024-01-11T11:15:12;-16114.00;;;-1.96;100.00
3590;BME280;1809;48.470;9.226;2024-01-11T11:17:39;-16117.97;;;-1.82;100.00
3590;BME280;1809;48.470;9.226;2024-01-11T11:20:07;-16114.72;;;-1.94;100.00
3590;BME280;1809;48.470;9.226;2024-01-11T11:22:42;-16116.84;;;-1.86;100.00
3590;BME280;1809;48.470;9.226;2024-01-11T11:25:24;-16108.78;;;-2.15;100.00
3590;BME280;1809;48.470;9.226;2024-01-11T11:27:50;-16121.63;;;-1.69;100.00
3590;BME280;1809;48.470;9.226;2024-01-11T11:30:18;-16122.19;;;-1.67;100.00
3590;BME280;1809;48.470;9.226;2024-01-11T11:32:45;-16127.28;;;-1.49;100.00
3590;BME280;1809;48.470;9.226;2024-01-11T11:35:11;-16127.28;;;-1.49;100.00
3590;BME280;1809;48.470;9.226;2024-01-11T11:37:37;-16115.00;;;-1.93;100.00
3590;BME280;1809;48.470;9.226;2024-01-11T11:40:04;-16122.47;;;-1.66;100.00
3590;BME280;1809;48.470;9.226;2024-01-11T11:42:36;-16118.94;;;-1.79;100.00
3590;BME280;1809;48.470;9.226;2024-01-11T11:45:02;-16122.47;;;-1.66;100.00
3590;BME280;1809;48.470;9.226;2024-01-11T11:47:35;-16119.94;;;-1.75;100.00
3590;BME280;1809;48.470;9.226;2024-01-11T11:50:08;-16122.91;;;-1.65;100.00
3590;BME280;1809;48.470;9.226;2024-01-11T11:52:38;-16121.63;;;-1.69;100.00
3590;BME280;1809;48.470;9.226;2024-01-11T11:55:06;-16121.91;;;-1.68;100.00
3590;BME280;1809;48.470;9.226;2024-01-11T11:57:33;-16123.47;;;-1.63;100.00
3590;BME280;1809;48.470;9.226;2024-01-11T11:59:59;-16126.72;;;-1.51;100.00
3590;BME280;1809;48.470;9.226;2024-01-11T12:02:27;-16122.75;;;-1.65;100.00
3590;BME280;1809;48.470;9.226;2024-01-11T12:04:53;-16114.72;;;-1.94;100.00
3590;BME280;1809;48.470;9.226;2024-01-11T12:07:22;-16123.88;;;-1.61;100.00
3590;BME280;1809;48.470;9.226;2024-01-11T12:09:49;-16124.59;;;-1.58;100.00
3590;BME280;1809;48.470;9.226;2024-01-11T12:12:15;-16124.03;;;-1.60;100.00
3590;BME280;1809;48.470;9.226;2024-01-11T12:14:43;-16119.94;;;-1.75;100.00
3590;BME280;1809;48.470;9.226;2024-01-11T12:17:08;-16114.72;;;-1.94;100.00
3590;BME280;1809;48.470;9.226;2024-01-11T12:19:34;-16113.72;;;-1.97;100.00
3590;BME280;1809;48.470;9.226;2024-01-11T12:21:59;-16113.88;;;-1.97;100.00
3590;BME280;1809;48.470;9.226;2024-01-11T12:24:25;-16116.84;;;-1.86;100.00
3590;BME280;1809;48.470;9.226;2024-01-11T12:26:50;-16116.84;;;-1.86;100.00
3590;BME280;1809;48.470;9.226;2024-01-11T12:29:19;-16115.13;;;-1.92;100.00
3590;BME280;1809;48.470;9.226;2024-01-11T12:31:44;-16117.81;;;-1.83;100.00
3590;BME280;1809;48.470;9.226;2024-01-11T12:34:13;-16114.00;;;-1.96;100.00
3590;BME280;1809;48.470;9.226;2024-01-11T12:36:39;-16116.56;;;-1.87;100.00
3590;BME280;1809;48.470;9.226;2024-01-11T12:39:07;-16120.78;;;-1.72;100.00
3590;BME280;1809;48.470;9.226;2024-01-11T12:41:34;-16123.31;;;-1.63;100.00
3590;BME280;1809;48.470;9.226;2024-01-11T12:44:00;-16120.22;;;-1.74;100.00
3590;BME280;1809;48.470;9.226;2024-01-11T12:46:26;-16121.63;;;-1.69;100.00
3590;BME280;1809;48.470;9.226;2024-01-11T12:48:51;-16121.91;;;-1.68;100.00
3590;BME280;1809;48.470;9.226;2024-01-11T12:51:17;-16123.59;;;-1.62;100.00
3590;BME280;1809;48.470;9.226;2024-01-11T12:53:47;-16123.03;;;-1.64;100.00
3590;BME280;1809;48.470;9.226;2024-01-11T12:56:15;-16125.56;;;-1.55;100.00
3590;BME280;1809;48.470;9.226;2024-01-11T12:58:41;-16124.44;;;-1.59;100.00
3590;BME280;1809;48.470;9.226;2024-01-11T13:01:07;-16125.84;;;-1.54;100.00
3590;BME280;1809;48.470;9.226;2024-01-11T13:03:34;-16124.72;;;-1.58;100.00